sensor_id;sensor_type;location;lat;lon;timestamp;P1;durP1;ratioP1;P2;durP2;ratioP2
19193;SDS011;9729;52.296;13.260;2023-07-22T00:01:25;7.70;;;7.10;;
19193;SDS011;9729;52.296;13.260;2023-07-22T00:03:51;8.90;;;7.03;;
19193;SDS011;9729;52.296;13.260;2023-07-22T00:06:18;8.23;;;6.27;;
19193;SDS011;9729;52.296;13.260;2023-07-22T00:08:45;7.67;;;6.43;;
19193;SDS011;9729;52.296;13.260;2023-07-22T00:11:11;8.80;;;7.90;;
19193;SDS011;9729;52.296;13.260;2023-07-22T00:13:39;7.67;;;6.97;;
19193;SDS011;9729;52.296;13.260;2023-07-22T00:16:05;7.03;;;6.07;;
19193;SDS011;9729;52.296;13.260;2023-07-22T00:18:32;7.07;;;6.33;;
19193;SDS011;9729;52.296;13.260;2023-07-22T00:20:59;7.00;;;6.30;;
19193;SDS011;9729;52.296;13.260;2023-07-22T00:23:25;8.50;;;6.30;;
19193;SDS011;9729;52.296;13.260;2023-07-22T00:25:52;6.60;;;6.10;;
19193;SDS011;9729;52.296;13.260;2023-07-22T00:28:18;8.20;;;6.57;;
19193;SDS011;9729;52.296;13.260;2023-07-22T00:30:46;8.60;;;7.30;;
19193;SDS011;9729;52.296;13.260;2023-07-22T00:33:14;8.10;;;6.97;;
19193;SDS011;9729;52.296;13.260;2023-07-22T00:35:40;8.83;;;7.93;;
19193;SDS011;9729;52.296;13.260;2023-07-22T00:38:07;8.83;;;7.90;;
19193;SDS011;9729;52.296;13.260;2023-07-22T00:40:34;9.23;;;7.87;;
19193;SDS011;9729;52.296;13.260;2023-07-22T00:43:01;9.13;;;8.27;;
19193;SDS011;9729;52.296;13.260;2023-07-22T00:45:27;8.63;;;7.87;;
19193;SDS011;9729;52.296;13.260;2023-07-22T00:47:55;9.57;;;8.47;;
19193;SDS011;9729;52.296;13.260;2023-07-22T00:50:21;10.73;;;7.97;;
19193;SDS011;9729;52.296;13.260;2023-07-22T00:52:47;9.20;;;8.30;;
19193;SDS011;9729;52.296;13.260;2023-07-22T00:55:14;11.30;;;8.57;;
19193;SDS011;9729;52.296;13.260;2023-07-22T00:57:40;9.17;;;8.27;;
19193;SDS011;9729;52.296;13.260;2023-07-22T01:00:07;13.03;;;8.07;;
19193;SDS011;9729;52.296;13.260;2023-07-22T01:02:36;8.83;;;7.90;;
19193;SDS011;9729;52.296;13.260;2023-07-22T01:05:04;7.57;;;6.80;;
19193;SDS011;9729;52.296;13.260;2023-07-22T01:07:31;8.67;;;7.77;;
19193;SDS011;9729;52.296;13.260;2023-07-22T01:09:57;8.00;;;7.10;;
19193;SDS011;9729;52.296;13.260;2023-07-22T01:12:24;12.97;;;8.07;;
19193;SDS011;9729;52.296;13.260;2023-07-22T01:14:50;8.73;;;7.07;;
19193;SDS011;9729;52.296;13.260;2023-07-22T01:17:17;9.07;;;7.70;;
19193;SDS011;9729;52.296;13.260;2023-07-22T01:19:44;9.47;;;7.77;;
19193;SDS011;9729;52.296;13.260;2023-07-22T01:22:12;8.53;;;7.33;;
19193;SDS011;9729;52.296;13.260;2023-07-22T01:24:40;7.33;;;6.63;;
19193;SDS011;9729;52.296;13.260;2023-07-22T01:27:07;8.70;;;6.67;;
19193;SDS011;9729;52.296;13.260;2023-07-22T01:29:35;7.20;;;6.50;;
19193;SDS011;9729;52.296;13.260;2023-07-22T01:32:02;8.27;;;6.37;;
19193;SDS011;9729;52.296;13.260;2023-07-22T01:34:28;6.97;;;6.00;;
19193;SDS011;9729;52.296;13.260;2023-07-22T01:36:56;7.63;;;6.57;;
19193;SDS011;9729;52.296;13.260;2023-07-22T01:39:23;7.10;;;6.40;;
19193;SDS011;9729;52.296;13.260;2023-07-22T01:41:50;7.03;;;5.90;;
19193;SDS011;9729;52.296;13.260;2023-07-22T01:44:16;8.67;;;6.10;;
19193;SDS011;9729;52.296;13.260;2023-07-22T01:46:43;6.70;;;5.73;;
19193;SDS011;9729;52.296;13.260;2023-07-22T01:49:10;9.20;;;6.37;;
19193;SDS011;9729;52.296;13.260;2023-07-22T01:51:37;6.83;;;5.43;;
19193;SDS011;9729;52.296;13.260;2023-07-22T01:54:05;9.10;;;5.93;;
19193;SDS011;9729;52.296;13.260;2023-07-22T01:56:32;8.93;;;6.27;;
19193;SDS011;9729;52.296;13.260;2023-07-22T01:59:00;6.57;;;5.97;;
19193;SDS011;9729;52.296;13.260;2023-07-22T02:01:26;6.60;;;5.97;;
19193;SDS011;9729;52.296;13.260;2023-07-22T02:03:53;6.80;;;5.57;;
19193;SDS011;9729;52.296;13.260;2023-07-22T02:06:19;9.07;;;6.00;;
19193;SDS011;9729;52.296;13.260;2023-07-22T02:08:45;6.93;;;6.10;;
19193;SDS011;9729;52.296;13.260;2023-07-22T02:11:12;11.10;;;6.13;;
19193;SDS011;9729;52.296;13.260;2023-07-22T02:13:38;7.03;;;5.47;;
19193;SDS011;9729;52.296;13.260;2023-07-22T02:16:06;6.67;;;5.70;;
19193;SDS011;9729;52.296;13.260;2023-07-22T02:18:36;7.30;;;5.80;;
19193;SDS011;9729;52.296;13.260;2023-07-22T02:21:02;5.70;;;5.23;;
19193;SDS011;9729;52.296;13.260;2023-07-22T02:23:29;8.50;;;5.53;;
19193;SDS011;9729;52.296;13.260;2023-07-22T02:25:55;7.83;;;5.80;;
19193;SDS011;9729;52.296;13.260;2023-07-22T02:28:21;6.83;;;5.60;;
19193;SDS011;9729;52.296;13.260;2023-07-22T02:30:50;7.23;;;5.43;;
19193;SDS011;9729;52.296;13.260;2023-07-22T02:33:18;6.43;;;5.60;;
19193;SDS011;9729;52.296;13.260;2023-07-22T02:35:46;6.13;;;5.53;;
19193;SDS011;9729;52.296;13.260;2023-07-22T02:38:13;7.67;;;5.60;;
19193;SDS011;9729;52.296;13.260;2023-07-22T02:40:39;6.67;;;5.27;;
19193;SDS011;9729;52.296;13.260;2023-07-22T02:43:06;5.57;;;4.90;;
19193;SDS011;9729;52.296;13.260;2023-07-22T02:45:33;5.97;;;5.47;;
19193;SDS011;9729;52.296;13.260;2023-07-22T02:48:00;8.50;;;5.33;;
19193;SDS011;9729;52.296;13.260;2023-07-22T02:50:27;7.23;;;5.20;;
19193;SDS011;9729;52.296;13.260;2023-07-22T02:52:54;5.03;;;4.63;;
19193;SDS011;9729;52.296;13.260;2023-07-22T02:55:21;6.30;;;4.67;;
19193;SDS011;9729;52.296;13.260;2023-07-22T02:57:48;6.10;;;4.90;;
19193;SDS011;9729;52.296;13.260;2023-07-22T03:00:15;5.57;;;5.13;;
19193;SDS011;9729;52.296;13.260;2023-07-22T03:02:48;5.27;;;4.80;;
19193;SDS011;9729;52.296;13.260;2023-07-22T03:05:15;6.57;;;4.67;;
19193;SDS011;9729;52.296;13.260;2023-07-22T03:07:42;5.50;;;4.53;;
19193;SDS011;9729;52.296;13.260;2023-07-22T03:10:09;6.43;;;4.80;;
19193;SDS011;9729;52.296;13.260;2023-07-22T03:12:36;5.43;;;4.83;;
19193;SDS011;9729;52.296;13.260;2023-07-22T03:15:03;4.97;;;4.57;;
19193;SDS011;9729;52.296;13.260;2023-07-22T03:17:33;6.17;;;4.97;;
19193;SDS011;9729;52.296;13.260;2023-07-22T03:19:59;5.77;;;5.00;;
19193;SDS011;9729;52.296;13.260;2023-07-22T03:22:25;5.70;;;5.20;;
19193;SDS011;9729;52.296;13.260;2023-07-22T03:24:53;6.60;;;5.27;;
19193;SDS011;9729;52.296;13.260;2023-07-22T03:27:19;6.63;;;5.93;;
19193;SDS011;9729;52.296;13.260;2023-07-22T03:29:46;5.03;;;4.53;;
19193;SDS011;9729;52.296;13.260;2023-07-22T03:32:12;7.30;;;5.70;;
19193;SDS011;9729;52.296;13.260;2023-07-22T03:34:39;5.87;;;5.17;;
19193;SDS011;9729;52.296;13.260;2023-07-22T03:37:06;8.80;;;5.80;;
19193;SDS011;9729;52.296;13.260;2023-07-22T03:39:34;5.17;;;4.77;;
19193;SDS011;9729;52.296;13.260;2023-07-22T03:42:02;7.77;;;5.10;;
19193;SDS011;9729;52.296;13.260;2023-07-22T03:44:29;7.50;;;4.63;;
19193;SDS011;9729;52.296;13.260;2023-07-22T03:46:55;5.37;;;4.97;;
19193;SDS011;9729;52.296;13.260;2023-07-22T03:49:21;6.57;;;4.70;;
19193;SDS011;9729;52.296;13.260;2023-07-22T03:51:48;7.03;;;4.87;;
19193;SDS011;9729;52.296;13.260;2023-07-22T03:54:14;4.63;;;4.23;;
19193;SDS011;9729;52.296;13.260;2023-07-22T03:56:40;5.30;;;4.80;;
19193;SDS011;9729;52.296;13.260;2023-07-22T03:59:08;4.80;;;4.37;;
19193;SDS011;9729;52.296;13.260;2023-07-22T04:01:34;8.03;;;4.93;;
19193;SDS011;9729;52.296;13.260;2023-07-22T04:04:01;6.00;;;5.37;;
19193;SDS011;9729;52.296;13.260;2023-07-22T04:06:27;5.23;;;4.43;;
19193;SDS011;9729;52.296;13.260;2023-07-22T04:08:53;5.57;;;4.80;;
19193;SDS011;9729;52.296;13.260;2023-07-22T04:11:20;7.43;;;4.90;;
19193;SDS011;9729;52.296;13.260;2023-07-22T04:13:46;9.37;;;4.97;;
19193;SDS011;9729;52.296;13.260;2023-07-22T04:16:15;5.00;;;4.53;;
19193;SDS011;9729;52.296;13.260;2023-07-22T04:18:41;4.90;;;4.40;;
19193;SDS011;9729;52.296;13.260;2023-07-22T04:21:07;7.17;;;4.80;;
19193;SDS011;9729;52.296;13.260;2023-07-22T04:23:34;5.67;;;4.37;;
19193;SDS011;9729;52.296;13.260;2023-07-22T04:26:01;6.63;;;4.53;;
19193;SDS011;9729;52.296;13.260;2023-07-22T04:28:29;6.87;;;4.33;;
19193;SDS011;9729;52.296;13.260;2023-07-22T04:30:56;5.73;;;4.93;;
19193;SDS011;9729;52.296;13.260;2023-07-22T04:33:24;6.53;;;4.90;;
19193;SDS011;9729;52.296;13.260;2023-07-22T04:35:53;7.80;;;5.20;;
19193;SDS011;9729;52.296;13.260;2023-07-22T04:38:19;6.53;;;4.57;;
19193;SDS011;9729;52.296;13.260;2023-07-22T04:40:46;8.70;;;4.90;;
19193;SDS011;9729;52.296;13.260;2023-07-22T04:43:12;6.27;;;4.73;;
19193;SDS011;9729;52.296;13.260;2023-07-22T04:45:38;4.73;;;4.30;;
19193;SDS011;9729;52.296;13.260;2023-07-22T04:48:05;7.40;;;4.40;;
19193;SDS011;9729;52.296;13.260;2023-07-22T04:50:33;6.90;;;4.37;;
19193;SDS011;9729;52.296;13.260;2023-07-22T04:52:59;7.30;;;4.40;;
19193;SDS011;9729;52.296;13.260;2023-07-22T04:55:25;5.00;;;4.60;;
19193;SDS011;9729;52.296;13.260;2023-07-22T04:57:54;8.30;;;5.17;;
19193;SDS011;9729;52.296;13.260;2023-07-22T05:00:21;5.50;;;4.77;;
19193;SDS011;9729;52.296;13.260;2023-07-22T05:02:47;6.17;;;4.90;;
19193;SDS011;9729;52.296;13.260;2023-07-22T05:05:14;9.40;;;4.67;;
19193;SDS011;9729;52.296;13.260;2023-07-22T05:07:42;5.83;;;4.90;;
19193;SDS011;9729;52.296;13.260;2023-07-22T05:10:10;6.90;;;5.90;;
19193;SDS011;9729;52.296;13.260;2023-07-22T05:12:38;6.63;;;5.93;;
19193;SDS011;9729;52.296;13.260;2023-07-22T05:15:05;6.37;;;5.70;;
19193;SDS011;9729;52.296;13.260;2023-07-22T05:17:32;6.67;;;5.47;;
19193;SDS011;9729;52.296;13.260;2023-07-22T05:19:58;8.40;;;5.40;;
19193;SDS011;9729;52.296;13.260;2023-07-22T05:22:25;10.37;;;5.63;;
19193;SDS011;9729;52.296;13.260;2023-07-22T05:24:52;10.03;;;5.43;;
19193;SDS011;9729;52.296;13.260;2023-07-22T05:27:19;5.33;;;4.87;;
19193;SDS011;9729;52.296;13.260;2023-07-22T05:29:45;9.03;;;5.27;;
19193;SDS011;9729;52.296;13.260;2023-07-22T05:32:13;7.47;;;5.27;;
19193;SDS011;9729;52.296;13.260;2023-07-22T05:34:39;8.10;;;5.83;;
19193;SDS011;9729;52.296;13.260;2023-07-22T05:37:05;12.50;;;5.50;;
19193;SDS011;9729;52.296;13.260;2023-07-22T05:39:32;8.07;;;5.10;;
19193;SDS011;9729;52.296;13.260;2023-07-22T05:41:59;8.50;;;5.83;;
19193;SDS011;9729;52.296;13.260;2023-07-22T05:44:26;7.90;;;6.37;;
19193;SDS011;9729;52.296;13.260;2023-07-22T05:46:52;9.00;;;6.50;;
19193;SDS011;9729;52.296;13.260;2023-07-22T05:49:18;8.20;;;6.10;;
19193;SDS011;9729;52.296;13.260;2023-07-22T05:51:44;8.73;;;6.90;;
19193;SDS011;9729;52.296;13.260;2023-07-22T05:54:11;10.47;;;6.03;;
19193;SDS011;9729;52.296;13.260;2023-07-22T05:56:37;7.53;;;6.83;;
19193;SDS011;9729;52.296;13.260;2023-07-22T05:59:05;9.97;;;6.90;;
19193;SDS011;9729;52.296;13.260;2023-07-22T06:01:31;9.37;;;6.90;;
19193;SDS011;9729;52.296;13.260;2023-07-22T06:03:57;11.87;;;7.10;;
19193;SDS011;9729;52.296;13.260;2023-07-22T06:06:24;7.13;;;6.37;;
19193;SDS011;9729;52.296;13.260;2023-07-22T06:08:51;8.30;;;6.63;;
19193;SDS011;9729;52.296;13.260;2023-07-22T06:11:17;7.80;;;6.53;;
19193;SDS011;9729;52.296;13.260;2023-07-22T06:13:43;15.33;;;7.13;;
19193;SDS011;9729;52.296;13.260;2023-07-22T06:16:11;6.80;;;6.07;;
19193;SDS011;9729;52.296;13.260;2023-07-22T06:18:37;6.70;;;6.00;;
19193;SDS011;9729;52.296;13.260;2023-07-22T06:21:03;9.20;;;5.80;;
19193;SDS011;9729;52.296;13.260;2023-07-22T06:23:30;7.43;;;6.00;;
19193;SDS011;9729;52.296;13.260;2023-07-22T06:25:56;13.43;;;5.00;;
19193;SDS011;9729;52.296;13.260;2023-07-22T06:28:22;9.77;;;5.60;;
19193;SDS011;9729;52.296;13.260;2023-07-22T06:30:49;8.97;;;5.77;;
19193;SDS011;9729;52.296;13.260;2023-07-22T06:33:16;9.10;;;5.60;;
19193;SDS011;9729;52.296;13.260;2023-07-22T06:35:43;7.40;;;5.73;;
19193;SDS011;9729;52.296;13.260;2023-07-22T06:38:09;12.30;;;5.87;;
19193;SDS011;9729;52.296;13.260;2023-07-22T06:40:35;12.70;;;5.63;;
19193;SDS011;9729;52.296;13.260;2023-07-22T06:43:02;6.90;;;5.27;;
19193;SDS011;9729;52.296;13.260;2023-07-22T06:45:28;9.03;;;5.17;;
19193;SDS011;9729;52.296;13.260;2023-07-22T06:47:54;5.47;;;4.97;;
19193;SDS011;9729;52.296;13.260;2023-07-22T06:50:22;11.67;;;5.30;;
19193;SDS011;9729;52.296;13.260;2023-07-22T06:52:48;7.47;;;5.53;;
19193;SDS011;9729;52.296;13.260;2023-07-22T06:55:15;8.87;;;4.80;;
19193;SDS011;9729;52.296;13.260;2023-07-22T06:57:41;36.47;;;7.90;;
19193;SDS011;9729;52.296;13.260;2023-07-22T07:00:08;7.80;;;5.50;;
19193;SDS011;9729;52.296;13.260;2023-07-22T07:02:35;9.97;;;5.07;;
19193;SDS011;9729;52.296;13.260;2023-07-22T07:05:02;7.67;;;5.40;;
19193;SDS011;9729;52.296;13.260;2023-07-22T07:07:30;8.57;;;5.40;;
19193;SDS011;9729;52.296;13.260;2023-07-22T07:09:57;13.20;;;4.80;;
19193;SDS011;9729;52.296;13.260;2023-07-22T07:12:23;9.80;;;5.50;;
19193;SDS011;9729;52.296;13.260;2023-07-22T07:14:50;19.67;;;6.90;;
19193;SDS011;9729;52.296;13.260;2023-07-22T07:17:17;10.23;;;6.70;;
19193;SDS011;9729;52.296;13.260;2023-07-22T07:19:43;7.83;;;5.73;;
19193;SDS011;9729;52.296;13.260;2023-07-22T07:22:09;7.90;;;5.10;;
19193;SDS011;9729;52.296;13.260;2023-07-22T07:24:37;11.87;;;5.50;;
19193;SDS011;9729;52.296;13.260;2023-07-22T07:27:03;6.53;;;4.83;;
19193;SDS011;9729;52.296;13.260;2023-07-22T07:29:30;14.77;;;5.50;;
19193;SDS011;9729;52.296;13.260;2023-07-22T07:31:56;9.80;;;5.80;;
19193;SDS011;9729;52.296;13.260;2023-07-22T07:34:23;11.20;;;6.20;;
19193;SDS011;9729;52.296;13.260;2023-07-22T07:36:49;5.23;;;4.40;;
19193;SDS011;9729;52.296;13.260;2023-07-22T07:39:15;7.57;;;4.93;;
19193;SDS011;9729;52.296;13.260;2023-07-22T07:41:43;12.27;;;5.13;;
19193;SDS011;9729;52.296;13.260;2023-07-22T07:44:10;7.83;;;5.97;;
19193;SDS011;9729;52.296;13.260;2023-07-22T07:46:36;14.53;;;6.00;;
19193;SDS011;9729;52.296;13.260;2023-07-22T07:49:03;8.50;;;5.57;;
19193;SDS011;9729;52.296;13.260;2023-07-22T07:51:30;8.70;;;5.80;;
19193;SDS011;9729;52.296;13.260;2023-07-22T07:53:57;5.63;;;4.77;;
19193;SDS011;9729;52.296;13.260;2023-07-22T07:56:24;8.57;;;5.50;;
19193;SDS011;9729;52.296;13.260;2023-07-22T07:58:52;8.00;;;5.10;;
19193;SDS011;9729;52.296;13.260;2023-07-22T08:01:19;9.10;;;5.10;;
19193;SDS011;9729;52.296;13.260;2023-07-22T08:03:46;11.80;;;5.77;;
19193;SDS011;9729;52.296;13.260;2023-07-22T08:06:12;11.57;;;5.83;;
19193;SDS011;9729;52.296;13.260;2023-07-22T08:08:39;8.80;;;5.67;;
19193;SDS011;9729;52.296;13.260;2023-07-22T08:11:06;49.07;;;10.50;;
19193;SDS011;9729;52.296;13.260;2023-07-22T08:13:33;15.03;;;6.10;;
19193;SDS011;9729;52.296;13.260;2023-07-22T08:16:02;7.43;;;5.20;;
19193;SDS011;9729;52.296;13.260;2023-07-22T08:18:29;8.37;;;5.70;;
19193;SDS011;9729;52.296;13.260;2023-07-22T08:20:55;11.73;;;5.37;;
19193;SDS011;9729;52.296;13.260;2023-07-22T08:23:22;9.83;;;5.70;;
19193;SDS011;9729;52.296;13.260;2023-07-22T08:25:49;8.23;;;5.57;;
19193;SDS011;9729;52.296;13.260;2023-07-22T08:28:15;9.93;;;6.03;;
19193;SDS011;9729;52.296;13.260;2023-07-22T08:30:42;7.40;;;5.33;;
19193;SDS011;9729;52.296;13.260;2023-07-22T08:33:11;7.00;;;5.50;;
19193;SDS011;9729;52.296;13.260;2023-07-22T08:35:37;6.67;;;5.40;;
19193;SDS011;9729;52.296;13.260;2023-07-22T08:38:04;7.23;;;5.23;;
19193;SDS011;9729;52.296;13.260;2023-07-22T08:40:33;11.20;;;5.90;;
19193;SDS011;9729;52.296;13.260;2023-07-22T08:42:59;6.27;;;5.27;;
19193;SDS011;9729;52.296;13.260;2023-07-22T08:45:26;11.03;;;6.27;;
19193;SDS011;9729;52.296;13.260;2023-07-22T08:47:54;7.67;;;5.47;;
19193;SDS011;9729;52.296;13.260;2023-07-22T08:50:26;8.67;;;5.57;;
19193;SDS011;9729;52.296;13.260;2023-07-22T08:52:55;7.97;;;5.23;;
19193;SDS011;9729;52.296;13.260;2023-07-22T08:55:22;6.93;;;5.03;;
19193;SDS011;9729;52.296;13.260;2023-07-22T08:57:49;8.67;;;5.53;;
19193;SDS011;9729;52.296;13.260;2023-07-22T09:00:16;6.37;;;4.83;;
19193;SDS011;9729;52.296;13.260;2023-07-22T09:02:43;8.93;;;5.13;;
19193;SDS011;9729;52.296;13.260;2023-07-22T09:05:09;14.60;;;5.10;;
19193;SDS011;9729;52.296;13.260;2023-07-22T09:07:37;63.00;;;11.97;;
19193;SDS011;9729;52.296;13.260;2023-07-22T09:10:04;9.60;;;5.60;;
19193;SDS011;9729;52.296;13.260;2023-07-22T09:12:32;8.57;;;5.33;;
19193;SDS011;9729;52.296;13.260;2023-07-22T09:15:04;8.17;;;5.30;;
19193;SDS011;9729;52.296;13.260;2023-07-22T09:17:32;7.50;;;5.00;;
19193;SDS011;9729;52.296;13.260;2023-07-22T09:19:59;7.93;;;5.13;;
19193;SDS011;9729;52.296;13.260;2023-07-22T09:22:25;5.83;;;4.73;;
19193;SDS011;9729;52.296;13.260;2023-07-22T09:24:54;9.23;;;5.00;;
19193;SDS011;9729;52.296;13.260;2023-07-22T09:27:39;9.30;;;4.97;;
19193;SDS011;9729;52.296;13.260;2023-07-22T09:30:17;7.27;;;5.10;;
19193;SDS011;9729;52.296;13.260;2023-07-22T09:32:46;6.07;;;4.90;;
19193;SDS011;9729;52.296;13.260;2023-07-22T09:35:13;8.77;;;5.10;;
19193;SDS011;9729;52.296;13.260;2023-07-22T09:37:39;11.17;;;4.60;;
19193;SDS011;9729;52.296;13.260;2023-07-22T09:40:14;10.90;;;4.77;;
19193;SDS011;9729;52.296;13.260;2023-07-22T09:42:43;14.47;;;6.00;;
19193;SDS011;9729;52.296;13.260;2023-07-22T09:45:10;8.17;;;4.87;;
19193;SDS011;9729;52.296;13.260;2023-07-22T09:47:39;7.50;;;5.00;;
19193;SDS011;9729;52.296;13.260;2023-07-22T09:50:06;6.50;;;4.60;;
19193;SDS011;9729;52.296;13.260;2023-07-22T09:52:34;7.57;;;4.80;;
19193;SDS011;9729;52.296;13.260;2023-07-22T09:55:07;7.60;;;4.63;;
19193;SDS011;9729;52.296;13.260;2023-07-22T09:57:35;8.53;;;5.00;;
19193;SDS011;9729;52.296;13.260;2023-07-22T10:00:01;6.63;;;4.83;;
19193;SDS011;9729;52.296;13.260;2023-07-22T10:02:28;5.03;;;4.57;;
19193;SDS011;9729;52.296;13.260;2023-07-22T10:04:55;7.30;;;5.40;;
19193;SDS011;9729;52.296;13.260;2023-07-22T10:07:24;5.67;;;4.83;;
19193;SDS011;9729;52.296;13.260;2023-07-22T10:09:51;6.63;;;5.03;;
19193;SDS011;9729;52.296;13.260;2023-07-22T10:12:20;8.67;;;5.23;;
19193;SDS011;9729;52.296;13.260;2023-07-22T10:14:48;9.43;;;5.40;;
19193;SDS011;9729;52.296;13.260;2023-07-22T10:17:14;7.77;;;5.30;;
19193;SDS011;9729;52.296;13.260;2023-07-22T10:19:41;7.00;;;5.27;;
19193;SDS011;9729;52.296;13.260;2023-07-22T10:22:09;6.50;;;5.47;;
19193;SDS011;9729;52.296;13.260;2023-07-22T10:24:35;7.87;;;5.73;;
19193;SDS011;9729;52.296;13.260;2023-07-22T10:27:02;13.17;;;5.50;;
19193;SDS011;9729;52.296;13.260;2023-07-22T10:29:29;6.57;;;5.77;;
19193;SDS011;9729;52.296;13.260;2023-07-22T10:31:58;7.43;;;5.60;;
19193;SDS011;9729;52.296;13.260;2023-07-22T10:34:25;10.07;;;5.20;;
19193;SDS011;9729;52.296;13.260;2023-07-22T10:36:51;9.63;;;5.87;;
19193;SDS011;9729;52.296;13.260;2023-07-22T10:39:24;7.67;;;6.23;;
19193;SDS011;9729;52.296;13.260;2023-07-22T10:41:57;8.63;;;6.17;;
19193;SDS011;9729;52.296;13.260;2023-07-22T10:44:25;9.10;;;5.70;;
19193;SDS011;9729;52.296;13.260;2023-07-22T10:46:56;8.10;;;6.10;;
19193;SDS011;9729;52.296;13.260;2023-07-22T10:49:27;8.53;;;5.60;;
19193;SDS011;9729;52.296;13.260;2023-07-22T10:52:13;11.10;;;5.70;;
19193;SDS011;9729;52.296;13.260;2023-07-22T10:54:40;7.53;;;5.97;;
19193;SDS011;9729;52.296;13.260;2023-07-22T10:59:48;7.87;;;5.60;;
19193;SDS011;9729;52.296;13.260;2023-07-22T11:02:22;9.83;;;5.70;;
19193;SDS011;9729;52.296;13.260;2023-07-22T11:04:50;8.77;;;5.70;;
19193;SDS011;9729;52.296;13.260;2023-07-22T11:07:29;6.00;;;5.07;;
19193;SDS011;9729;52.296;13.260;2023-07-22T11:09:56;7.27;;;5.07;;
19193;SDS011;9729;52.296;13.260;2023-07-22T11:12:24;8.03;;;5.33;;
19193;SDS011;9729;52.296;13.260;2023-07-22T11:14:51;5.70;;;5.10;;
19193;SDS011;9729;52.296;13.260;2023-07-22T11:17:18;5.53;;;4.97;;
19193;SDS011;9729;52.296;13.260;2023-07-22T11:19:55;8.87;;;5.23;;
19193;SDS011;9729;52.296;13.260;2023-07-22T11:22:22;8.57;;;5.23;;
19193;SDS011;9729;52.296;13.260;2023-07-22T11:24:48;8.97;;;5.33;;
19193;SDS011;9729;52.296;13.260;2023-07-22T11:27:15;9.00;;;5.80;;
19193;SDS011;9729;52.296;13.260;2023-07-22T11:29:41;6.10;;;5.50;;
19193;SDS011;9729;52.296;13.260;2023-07-22T11:32:14;6.67;;;5.07;;
19193;SDS011;9729;52.296;13.260;2023-07-22T11:34:41;7.17;;;5.00;;
19193;SDS011;9729;52.296;13.260;2023-07-22T11:37:10;9.50;;;5.63;;
19193;SDS011;9729;52.296;13.260;2023-07-22T11:39:38;6.40;;;5.33;;
19193;SDS011;9729;52.296;13.260;2023-07-22T11:42:06;5.97;;;5.37;;
19193;SDS011;9729;52.296;13.260;2023-07-22T11:44:33;6.93;;;5.83;;
19193;SDS011;9729;52.296;13.260;2023-07-22T11:47:01;9.77;;;5.67;;
19193;SDS011;9729;52.296;13.260;2023-07-22T11:49:29;6.43;;;5.83;;
19193;SDS011;9729;52.296;13.260;2023-07-22T11:51:57;7.90;;;5.93;;
19193;SDS011;9729;52.296;13.260;2023-07-22T11:54:26;6.30;;;5.60;;
19193;SDS011;9729;52.296;13.260;2023-07-22T11:56:53;8.97;;;6.30;;
19193;SDS011;9729;52.296;13.260;2023-07-22T11:59:32;7.43;;;5.37;;
19193;SDS011;9729;52.296;13.260;2023-07-22T12:02:00;10.57;;;6.13;;
19193;SDS011;9729;52.296;13.260;2023-07-22T12:04:30;8.93;;;5.67;;
19193;SDS011;9729;52.296;13.260;2023-07-22T12:06:56;7.67;;;5.93;;
19193;SDS011;9729;52.296;13.260;2023-07-22T12:09:22;6.97;;;5.97;;
19193;SDS011;9729;52.296;13.260;2023-07-22T12:11:54;6.90;;;5.07;;
19193;SDS011;9729;52.296;13.260;2023-07-22T12:14:21;11.53;;;5.60;;
19193;SDS011;9729;52.296;13.260;2023-07-22T12:16:47;15.77;;;6.60;;
19193;SDS011;9729;52.296;13.260;2023-07-22T12:19:13;7.80;;;5.90;;
19193;SDS011;9729;52.296;13.260;2023-07-22T12:21:39;6.63;;;5.57;;
19193;SDS011;9729;52.296;13.260;2023-07-22T12:24:06;6.97;;;5.87;;
19193;SDS011;9729;52.296;13.260;2023-07-22T12:26:32;7.03;;;5.83;;
19193;SDS011;9729;52.296;13.260;2023-07-22T12:29:00;10.67;;;6.30;;
19193;SDS011;9729;52.296;13.260;2023-07-22T12:31:27;6.33;;;5.07;;
19193;SDS011;9729;52.296;13.260;2023-07-22T12:33:53;7.93;;;5.80;;
19193;SDS011;9729;52.296;13.260;2023-07-22T12:36:19;5.97;;;5.10;;
19193;SDS011;9729;52.296;13.260;2023-07-22T12:38:46;12.10;;;6.03;;
19193;SDS011;9729;52.296;13.260;2023-07-22T12:41:12;8.37;;;5.77;;
19193;SDS011;9729;52.296;13.260;2023-07-22T12:43:38;6.87;;;5.00;;
19193;SDS011;9729;52.296;13.260;2023-07-22T12:46:06;7.27;;;4.80;;
19193;SDS011;9729;52.296;13.260;2023-07-22T12:48:32;6.63;;;5.93;;
19193;SDS011;9729;52.296;13.260;2023-07-22T12:50:59;6.47;;;5.27;;
19193;SDS011;9729;52.296;13.260;2023-07-22T12:53:25;7.27;;;5.50;;
19193;SDS011;9729;52.296;13.260;2023-07-22T12:55:52;6.50;;;5.40;;
19193;SDS011;9729;52.296;13.260;2023-07-22T12:58:18;7.10;;;4.60;;
19193;SDS011;9729;52.296;13.260;2023-07-22T13:00:45;12.20;;;5.40;;
19193;SDS011;9729;52.296;13.260;2023-07-22T13:03:13;6.63;;;5.23;;
19193;SDS011;9729;52.296;13.260;2023-07-22T13:05:39;7.37;;;5.17;;
19193;SDS011;9729;52.296;13.260;2023-07-22T13:08:06;6.03;;;4.90;;
19193;SDS011;9729;52.296;13.260;2023-07-22T13:10:32;12.10;;;5.17;;
19193;SDS011;9729;52.296;13.260;2023-07-22T13:13:02;8.10;;;5.37;;
19193;SDS011;9729;52.296;13.260;2023-07-22T13:15:28;5.73;;;4.60;;
19193;SDS011;9729;52.296;13.260;2023-07-22T13:17:55;8.30;;;5.50;;
19193;SDS011;9729;52.296;13.260;2023-07-22T13:20:22;5.40;;;4.83;;
19193;SDS011;9729;52.296;13.260;2023-07-22T13:22:49;8.53;;;4.63;;
19193;SDS011;9729;52.296;13.260;2023-07-22T13:25:15;6.60;;;4.70;;
19193;SDS011;9729;52.296;13.260;2023-07-22T13:27:42;12.33;;;5.57;;
19193;SDS011;9729;52.296;13.260;2023-07-22T13:30:08;8.10;;;5.07;;
19193;SDS011;9729;52.296;13.260;2023-07-22T13:32:35;7.67;;;5.07;;
19193;SDS011;9729;52.296;13.260;2023-07-22T13:35:01;5.57;;;4.90;;
19193;SDS011;9729;52.296;13.260;2023-07-22T13:37:30;7.97;;;4.97;;
19193;SDS011;9729;52.296;13.260;2023-07-22T13:39:56;5.40;;;4.87;;
19193;SDS011;9729;52.296;13.260;2023-07-22T13:42:23;6.68;;;5.00;;
19193;SDS011;9729;52.296;13.260;2023-07-22T13:44:49;5.90;;;5.10;;
19193;SDS011;9729;52.296;13.260;2023-07-22T13:47:16;5.07;;;4.57;;
19193;SDS011;9729;52.296;13.260;2023-07-22T13:49:42;5.57;;;5.05;;
19193;SDS011;9729;52.296;13.260;2023-07-22T13:52:08;5.10;;;4.32;;
19193;SDS011;9729;52.296;13.260;2023-07-22T13:54:36;5.43;;;4.90;;
19193;SDS011;9729;52.296;13.260;2023-07-22T13:57:03;9.18;;;5.35;;
19193;SDS011;9729;52.296;13.260;2023-07-22T13:59:29;5.60;;;5.07;;
19193;SDS011;9729;52.296;13.260;2023-07-22T14:01:56;11.65;;;5.82;;
19193;SDS011;9729;52.296;13.260;2023-07-22T14:04:22;9.70;;;5.82;;
19193;SDS011;9729;52.296;13.260;2023-07-22T14:06:48;5.63;;;5.03;;
19193;SDS011;9729;52.296;13.260;2023-07-22T14:09:15;10.40;;;5.30;;
19193;SDS011;9729;52.296;13.260;2023-07-22T14:11:42;6.68;;;5.47;;
19193;SDS011;9729;52.296;13.260;2023-07-22T14:14:09;9.25;;;6.15;;
19193;SDS011;9729;52.296;13.260;2023-07-22T14:16:35;7.13;;;5.80;;
19193;SDS011;9729;52.296;13.260;2023-07-22T14:19:01;6.93;;;5.55;;
19193;SDS011;9729;52.296;13.260;2023-07-22T14:21:28;6.53;;;5.45;;
19193;SDS011;9729;52.296;13.260;2023-07-22T14:23:54;6.30;;;5.20;;
19193;SDS011;9729;52.296;13.260;2023-07-22T14:26:20;6.82;;;6.13;;
19193;SDS011;9729;52.296;13.260;2023-07-22T14:28:48;6.93;;;6.18;;
19193;SDS011;9729;52.296;13.260;2023-07-22T14:31:15;7.70;;;6.22;;
19193;SDS011;9729;52.296;13.260;2023-07-22T14:33:42;7.28;;;5.85;;
19193;SDS011;9729;52.296;13.260;2023-07-22T14:36:08;5.97;;;5.38;;
19193;SDS011;9729;52.296;13.260;2023-07-22T14:38:34;6.15;;;5.55;;
19193;SDS011;9729;52.296;13.260;2023-07-22T14:41:01;7.10;;;6.30;;
19193;SDS011;9729;52.296;13.260;2023-07-22T14:43:28;5.90;;;5.30;;
19193;SDS011;9729;52.296;13.260;2023-07-22T14:45:55;7.13;;;5.65;;
19193;SDS011;9729;52.296;13.260;2023-07-22T14:48:22;7.35;;;5.75;;